Time;durP1;ratioP1;P1;durP2;ratioP2;P2;SDS_P1;SDS_P2;PMS_P1;PMS_P2;Temp;Humidity;BMP_temperature;BMP_pressure;BME280_temperature;BME280_humidity;BME280_pressure;Samples;Min_cycle;Max_cycle;Signal;HPM_P1;HPM_P2
2021/05/26 00:00:51;;;;;;;2.65;1.45;;;13.10;96.40;;;;;;5112686;28;20222;-64
2021/05/26 00:03:18;;;;;;;2.65;1.30;;;13.00;96.60;;;;;;5112809;28;20309;-64
2021/05/26 00:05:47;;;;;;;1.70;1.40;;;13.00;96.60;;;;;;5112140;27;20222;-64
2021/05/26 00:08:13;;;;;;;3.75;2.22;;;13.00;96.50;;;;;;5112517;27;20226;-63
2021/05/26 00:10:40;;;;;;;1.98;1.60;;;13.00;96.50;;;;;;5112166;27;20222;-62
2021/05/26 00:13:06;;;;;;;1.75;1.58;;;13.00;96.70;;;;;;5111096;27;20569;-62
2021/05/26 00:15:32;;;;;;;2.08;1.20;;;12.90;96.60;;;;;;5109726;27;20571;-63
2021/05/26 00:17:59;;;;;;;1.38;1.17;;;12.90;96.70;;;;;;5109575;27;20222;-62
2021/05/26 00:20:25;;;;;;;3.60;1.20;;;12.90;96.70;;;;;;5109397;27;20223;-62
2021/05/26 00:22:52;;;;;;;2.70;1.25;;;12.90;96.60;;;;;;5108600;27;20226;-62
2021/05/26 00:25:19;;;;;;;1.33;1.10;;;12.90;96.80;;;;;;5109037;27;20233;-62
2021/05/26 00:27:46;;;;;;;1.58;1.00;;;12.80;96.80;;;;;;5108634;27;20230;-63
2021/05/26 00:30:14;;;;;;;2.40;1.13;;;12.80;96.90;;;;;;5109416;27;20265;-63
2021/05/26 00:32:40;;;;;;;1.92;1.42;;;12.70;96.80;;;;;;5108138;27;20318;-63
2021/05/26 00:35:09;;;;;;;2.28;1.25;;;12.80;96.90;;;;;;5109397;27;20222;-61
2021/05/26 00:37:35;;;;;;;3.95;1.10;;;12.70;96.90;;;;;;5110406;27;20268;-61
2021/05/26 00:40:04;;;;;;;1.88;1.30;;;12.70;97.10;;;;;;5110235;27;20242;-62
2021/05/26 00:42:30;;;;;;;1.25;1.08;;;12.70;97.20;;;;;;5109747;27;20228;-61
2021/05/26 00:44:57;;;;;;;2.05;1.08;;;12.60;97.20;;;;;;5110555;27;20223;-62
2021/05/26 00:47:40;;;;;;;3.00;1.25;;;12.60;97.30;;;;;;5109867;27;20231;-61
2021/05/26 00:50:09;;;;;;;3.20;1.15;;;12.60;97.50;;;;;;5110517;27;20604;-61
2021/05/26 00:52:36;;;;;;;1.40;1.30;;;12.60;97.40;;;;;;5110077;27;20226;-62
2021/05/26 00:55:04;;;;;;;1.45;1.23;;;12.60;97.30;;;;;;5110222;27;20230;-61
2021/05/26 00:57:30;;;;;;;1.20;1.10;;;12.70;97.50;;;;;;5110161;27;20227;-61
2021/05/26 00:59:57;;;;;;;2.80;1.20;;;12.60;97.50;;;;;;5112558;27;20695;-62
2021/05/26 01:02:23;;;;;;;1.10;1.00;;;12.60;97.60;;;;;;5114202;27;20237;-62
2021/05/26 01:04:49;;;;;;;1.50;1.40;;;12.60;97.60;;;;;;5113658;27;20218;-62
2021/05/26 01:07:16;;;;;;;1.13;1.05;;;12.60;97.40;;;;;;5113797;27;20222;-62
2021/05/26 01:09:42;;;;;;;1.42;1.10;;;12.60;97.50;;;;;;5114364;27;20368;-62
2021/05/26 01:12:10;;;;;;;2.45;1.40;;;12.70;97.60;;;;;;5116267;27;20229;-63
2021/05/26 01:14:36;;;;;;;2.00;1.40;;;12.70;97.60;;;;;;5110342;28;20222;-62
2021/05/26 01:17:03;;;;;;;1.27;1.17;;;12.70;97.60;;;;;;5113694;28;20227;-62
2021/05/26 01:19:30;;;;;;;1.98;1.02;;;12.70;97.50;;;;;;5109392;27;20222;-62
2021/05/26 01:21:58;;;;;;;1.80;1.00;;;12.70;97.40;;;;;;5116358;28;20229;-62
2021/05/26 01:24:24;;;;;;;1.92;1.20;;;12.70;97.40;;;;;;5115848;27;20239;-62
2021/05/26 01:26:50;;;;;;;2.47;1.02;;;12.70;97.40;;;;;;5116256;27;20222;-62
2021/05/26 01:29:17;;;;;;;1.10;0.95;;;12.70;97.40;;;;;;5116162;28;20223;-62
2021/05/26 01:31:44;;;;;;;1.40;1.10;;;12.70;97.40;;;;;;5115916;28;20310;-62
2021/05/26 01:34:11;;;;;;;3.55;1.17;;;12.70;97.50;;;;;;5116329;27;20229;-62
2021/05/26 01:36:40;;;;;;;1.40;1.10;;;12.70;97.30;;;;;;5115631;27;20695;-62
2021/05/26 01:39:08;;;;;;;1.80;1.15;;;12.70;97.30;;;;;;5116065;28;20226;-62
2021/05/26 01:41:35;;;;;;;2.70;1.40;;;12.70;97.50;;;;;;5115802;28;20695;-62
2021/05/26 01:44:02;;;;;;;1.60;1.00;;;12.70;97.50;;;;;;5115920;28;20226;-62
2021/05/26 01:46:28;;;;;;;1.38;1.25;;;12.70;97.50;;;;;;5115635;27;20745;-62
2021/05/26 01:48:55;;;;;;;2.25;1.08;;;12.70;97.50;;;;;;5115846;27;20223;-63
2021/05/26 01:51:21;;;;;;;1.45;0.98;;;12.70;97.50;;;;;;5115380;28;20223;-62
2021/05/26 01:53:50;;;;;;;1.20;1.10;;;12.70;97.60;;;;;;5115898;28;20224;-61
2021/05/26 01:56:18;;;;;;;1.83;1.20;;;12.70;97.60;;;;;;5115601;27;20229;-61
2021/05/26 01:58:44;;;;;;;1.20;1.10;;;12.70;97.70;;;;;;5115163;27;20250;-62
2021/05/26 02:01:11;;;;;;;1.50;1.33;;;12.70;97.60;;;;;;5115576;28;20752;-61
2021/05/26 02:03:42;;;;;;;1.20;1.10;;;12.70;97.60;;;;;;5115154;27;20275;-62
2021/05/26 02:06:08;;;;;;;1.45;1.35;;;12.70;97.60;;;;;;5109288;27;20540;-62
2021/05/26 02:08:35;;;;;;;3.28;1.38;;;12.70;97.70;;;;;;5115054;27;20226;-62
2021/05/26 02:13:49;;;;;;;1.38;1.27;;;12.80;97.60;;;;;;5072478;28;21253;-61
2021/05/26 02:16:15;;;;;;;1.35;1.25;;;12.70;97.80;;;;;;5115256;28;20219;-61
2021/05/26 02:18:42;;;;;;;1.05;0.95;;;12.70;97.80;;;;;;5114578;27;20599;-62
2021/05/26 02:21:08;;;;;;;7.00;1.50;;;12.70;97.80;;;;;;5115084;28;20229;-62
2021/05/26 02:23:35;;;;;;;1.20;1.10;;;12.80;97.90;;;;;;5114596;27;20595;-62
2021/05/26 02:26:01;;;;;;;1.25;1.00;;;12.80;97.90;;;;;;5115407;28;20230;-62
2021/05/26 02:28:28;;;;;;;1.50;1.35;;;12.70;97.90;;;;;;5114613;27;20240;-62
2021/05/26 02:30:55;;;;;;;2.55;2.30;;;12.70;97.90;;;;;;5115329;27;20218;-62
2021/05/26 02:33:21;;;;;;;1.30;1.00;;;12.70;97.90;;;;;;5114961;27;20222;-62
2021/05/26 02:35:48;;;;;;;1.88;1.00;;;12.70;97.90;;;;;;5114642;28;20224;-62
2021/05/26 02:38:14;;;;;;;1.33;1.23;;;12.70;98.00;;;;;;5114860;28;20233;-62
2021/05/26 02:40:41;;;;;;;1.65;1.20;;;12.70;98.10;;;;;;5114443;28;20227;-62
2021/05/26 02:43:07;;;;;;;1.80;1.00;;;12.60;98.10;;;;;;5114708;27;20237;-63
2021/05/26 02:45:34;;;;;;;1.38;1.27;;;12.60;98.30;;;;;;5114500;27;20805;-63
2021/05/26 02:48:01;;;;;;;1.52;1.42;;;12.60;98.30;;;;;;5114573;27;20231;-63
2021/05/26 02:50:27;;;;;;;5.20;2.85;;;12.60;98.30;;;;;;5114372;28;20233;-63
2021/05/26 02:52:54;;;;;;;9.40;7.63;;;12.60;98.40;;;;;;5114705;28;20222;-62
2021/05/26 02:55:22;;;;;;;5.72;5.05;;;12.60;98.40;;;;;;5114323;28;20238;-61
2021/05/26 02:57:49;;;;;;;1.40;1.30;;;12.60;98.40;;;;;;5114144;27;20234;-63
2021/05/26 03:00:17;;;;;;;2.10;1.35;;;12.60;98.40;;;;;;5114744;28;20227;-63
2021/05/26 03:02:45;;;;;;;2.17;1.13;;;12.70;98.50;;;;;;5113935;28;20227;-62
2021/05/26 03:05:14;;;;;;;1.98;1.48;;;12.70;98.40;;;;;;5114243;27;20223;-62
2021/05/26 03:07:42;;;;;;;1.30;1.20;;;12.70;98.50;;;;;;5112574;27;20258;-63
2021/05/26 03:10:10;;;;;;;1.63;1.13;;;12.70;98.50;;;;;;5113371;27;20231;-62
2021/05/26 03:12:37;;;;;;;1.70;1.20;;;12.60;98.50;;;;;;5113928;27;20214;-62
2021/05/26 03:15:05;;;;;;;3.20;1.52;;;12.60;98.60;;;;;;5114410;27;20247;-63
2021/05/26 03:17:31;;;;;;;1.40;1.25;;;12.60;98.80;;;;;;5113827;27;20222;-62
2021/05/26 03:19:58;;;;;;;1.90;1.30;;;12.60;98.70;;;;;;5112606;27;20229;-63
2021/05/26 03:22:25;;;;;;;1.67;1.30;;;12.60;98.90;;;;;;5112234;27;20215;-62
2021/05/26 03:24:51;;;;;;;3.45;1.50;;;12.60;99.10;;;;;;5111891;27;20233;-63
2021/05/26 03:27:19;;;;;;;1.25;1.15;;;12.60;99.10;;;;;;5112403;27;20226;-62
2021/05/26 03:29:46;;;;;;;5.13;1.55;;;12.60;99.10;;;;;;5112106;27;20241;-62
2021/05/26 03:32:13;;;;;;;7.15;5.60;;;12.60;99.00;;;;;;5112596;27;20275;-62
2021/05/26 03:34:40;;;;;;;7.07;5.22;;;12.60;98.90;;;;;;5113813;27;20219;-62
2021/05/26 03:37:06;;;;;;;12.38;9.38;;;12.60;99.00;;;;;;5114030;27;20233;-63
2021/05/26 03:39:33;;;;;;;5.88;4.60;;;12.60;99.00;;;;;;5113487;27;20223;-62
2021/05/26 03:42:00;;;;;;;3.38;3.17;;;12.70;99.10;;;;;;5114016;27;20233;-62
2021/05/26 03:44:26;;;;;;;1.52;1.40;;;12.60;99.10;;;;;;5113875;27;20600;-62
2021/05/26 03:46:52;;;;;;;3.58;1.52;;;12.70;99.20;;;;;;5113244;27;20652;-63
2021/05/26 03:49:18;;;;;;;2.17;1.40;;;12.70;99.20;;;;;;5113929;27;20219;-62
2021/05/26 03:51:45;;;;;;;2.92;1.42;;;12.70;99.00;;;;;;5113162;27;20222;-62
2021/05/26 03:54:11;;;;;;;2.03;1.40;;;12.80;99.10;;;;;;5114066;27;20218;-62
2021/05/26 03:56:38;;;;;;;1.50;1.40;;;12.80;99.10;;;;;;5113108;27;20222;-62
2021/05/26 03:59:05;;;;;;;2.15;1.67;;;12.80;99.00;;;;;;5113557;27;20226;-62
2021/05/26 04:01:31;;;;;;;2.40;2.20;;;12.80;98.90;;;;;;5113262;27;20226;-62
2021/05/26 04:03:58;;;;;;;3.00;2.03;;;12.90;99.00;;;;;;5113338;27;20310;-62
2021/05/26 04:06:24;;;;;;;1.90;1.75;;;12.90;98.80;;;;;;5113387;27;20227;-62
2021/05/26 04:08:51;;;;;;;2.33;1.60;;;12.90;98.70;;;;;;5113070;27;20311;-63
2021/05/26 04:11:18;;;;;;;2.35;1.42;;;12.90;98.60;;;;;;5113518;27;20219;-62
2021/05/26 04:13:45;;;;;;;1.65;1.38;;;13.00;98.70;;;;;;5113063;27;20274;-62
2021/05/26 04:16:11;;;;;;;2.15;1.38;;;13.10;98.60;;;;;;5113264;27;20228;-63
2021/05/26 04:18:37;;;;;;;1.77;1.67;;;13.10;98.60;;;;;;5112913;27;20218;-62
2021/05/26 04:21:04;;;;;;;3.00;1.40;;;13.10;98.50;;;;;;5113489;27;20290;-62
2021/05/26 04:23:31;;;;;;;1.65;1.55;;;13.20;98.40;;;;;;5113333;27;20223;-63
2021/05/26 04:25:57;;;;;;;1.52;1.30;;;13.20;98.30;;;;;;5112702;27;20223;-63
2021/05/26 04:28:24;;;;;;;1.45;1.10;;;13.20;98.30;;;;;;5113335;27;20271;-63
2021/05/26 04:30:51;;;;;;;1.98;1.58;;;13.20;98.30;;;;;;5112838;27;20227;-62
2021/05/26 04:33:17;;;;;;;8.70;1.70;;;13.20;98.30;;;;;;5112861;27;20218;-62
2021/05/26 04:35:44;;;;;;;2.17;1.48;;;13.20;98.60;;;;;;5112618;27;20617;-61
2021/05/26 04:38:10;;;;;;;1.40;1.30;;;13.20;98.60;;;;;;5112990;27;20237;-62
2021/05/26 04:40:37;;;;;;;5.65;1.50;;;13.20;98.50;;;;;;5112728;27;20218;-60
2021/05/26 04:43:03;;;;;;;1.75;1.50;;;13.20;98.50;;;;;;5113172;27;20278;-62
2021/05/26 04:45:30;;;;;;;4.60;2.05;;;13.20;98.40;;;;;;5112889;27;20256;-61
2021/05/26 04:47:57;;;;;;;5.97;3.28;;;13.30;98.50;;;;;;5112688;27;20226;-61
2021/05/26 04:50:24;;;;;;;3.25;2.72;;;13.30;98.50;;;;;;5113006;27;20710;-62
2021/05/26 04:52:51;;;;;;;1.80;1.70;;;13.40;98.50;;;;;;5112621;27;20229;-61
2021/05/26 04:55:17;;;;;;;1.60;1.50;;;13.40;98.40;;;;;;5112987;27;20227;-61
2021/05/26 04:57:44;;;;;;;1.77;1.67;;;13.50;98.40;;;;;;5112594;27;20226;-61
2021/05/26 05:00:11;;;;;;;2.13;1.70;;;13.60;98.40;;;;;;5112997;27;20272;-61
2021/05/26 05:02:38;;;;;;;2.10;1.90;;;13.60;98.60;;;;;;5112571;27;20223;-61
2021/05/26 05:05:06;;;;;;;2.08;1.92;;;13.60;98.30;;;;;;5112626;27;20222;-61
2021/05/26 05:07:32;;;;;;;1.77;1.52;;;13.70;98.30;;;;;;5112847;27;20234;-61
2021/05/26 05:09:58;;;;;;;1.80;1.70;;;13.70;98.00;;;;;;5112360;27;20219;-62
2021/05/26 05:12:25;;;;;;;3.75;2.33;;;13.70;98.00;;;;;;5112927;27;20223;-62
2021/05/26 05:14:51;;;;;;;1.48;1.38;;;13.80;97.90;;;;;;5112242;27;20538;-62
2021/05/26 05:17:17;;;;;;;2.92;1.80;;;13.80;97.40;;;;;;5112673;27;20256;-62
2021/05/26 05:19:44;;;;;;;2.45;2.25;;;13.70;97.30;;;;;;5112239;27;20233;-62
2021/05/26 05:22:11;;;;;;;2.97;1.95;;;13.80;97.50;;;;;;5112888;27;20222;-62
2021/05/26 05:24:37;;;;;;;6.30;1.85;;;13.80;97.40;;;;;;5112481;27;20308;-62
2021/05/26 05:27:04;;;;;;;7.97;1.90;;;13.80;97.30;;;;;;5112516;27;20235;-62
2021/05/26 05:29:30;;;;;;;3.70;3.30;;;13.90;97.40;;;;;;5112826;27;20223;-62
2021/05/26 05:31:56;;;;;;;5.47;4.97;;;13.90;97.10;;;;;;5112146;27;20223;-62
2021/05/26 05:34:22;;;;;;;4.47;4.10;;;13.90;97.30;;;;;;5112756;27;20222;-62
2021/05/26 05:36:49;;;;;;;3.40;3.10;;;14.00;97.40;;;;;;5112350;27;20679;-62
2021/05/26 05:39:17;;;;;;;4.57;3.20;;;14.00;97.30;;;;;;5112497;27;20240;-61
2021/05/26 05:41:45;;;;;;;4.28;3.05;;;14.00;97.20;;;;;;5112054;27;20313;-60
2021/05/26 05:44:11;;;;;;;4.53;2.42;;;14.00;97.00;;;;;;5112617;27;20246;-62
2021/05/26 05:46:37;;;;;;;6.97;3.30;;;14.00;96.90;;;;;;5115438;27;20245;-62
2021/05/26 05:49:04;;;;;;;5.47;4.57;;;14.00;96.90;;;;;;5115755;27;20443;-62
2021/05/26 05:51:30;;;;;;;6.43;3.90;;;14.00;96.90;;;;;;5116164;27;20223;-62
2021/05/26 05:53:56;;;;;;;4.35;2.40;;;14.10;96.60;;;;;;5115561;27;20692;-63
2021/05/26 05:56:24;;;;;;;4.45;3.28;;;14.20;96.60;;;;;;5116236;27;20223;-62
2021/05/26 05:58:50;;;;;;;7.18;5.13;;;14.20;96.60;;;;;;5115384;27;20658;-61
2021/05/26 06:01:16;;;;;;;9.20;5.57;;;14.20;96.20;;;;;;5115825;27;20223;-62
2021/05/26 06:03:43;;;;;;;5.97;3.63;;;14.20;96.10;;;;;;5115413;27;20246;-62
2021/05/26 06:06:09;;;;;;;4.60;2.60;;;14.30;96.20;;;;;;5115610;27;20222;-62
2021/05/26 06:08:36;;;;;;;4.07;2.20;;;14.30;96.20;;;;;;5115859;27;20231;-63
2021/05/26 06:11:02;;;;;;;7.35;2.70;;;14.30;96.40;;;;;;5115356;27;20709;-62
2021/05/26 06:13:30;;;;;;;3.35;2.33;;;14.40;95.90;;;;;;5115788;27;20223;-63
2021/05/26 06:15:56;;;;;;;1.80;1.70;;;14.40;95.80;;;;;;5115272;27;20569;-62
2021/05/26 06:18:22;;;;;;;3.63;1.90;;;14.30;95.80;;;;;;5115483;27;20226;-63
2021/05/26 06:20:49;;;;;;;3.70;1.92;;;14.40;95.90;;;;;;5115118;27;20219;-63
2021/05/26 06:23:15;;;;;;;2.80;1.77;;;14.40;95.70;;;;;;5115592;27;20686;-63
2021/05/26 06:25:41;;;;;;;2.30;1.70;;;14.40;95.60;;;;;;5114983;27;20227;-62
2021/05/26 06:28:09;;;;;;;4.20;2.47;;;14.50;95.60;;;;;;5115225;27;20219;-63
2021/05/26 06:30:36;;;;;;;8.15;5.00;;;14.50;95.50;;;;;;5115491;27;20691;-62
2021/05/26 06:33:02;;;;;;;4.32;3.03;;;14.40;95.50;;;;;;5114738;27;20240;-63
2021/05/26 06:35:29;;;;;;;4.60;3.63;;;14.40;95.50;;;;;;5115258;27;20270;-62
2021/05/26 06:37:55;;;;;;;10.25;8.95;;;14.50;95.60;;;;;;5114782;27;20251;-62
2021/05/26 06:40:21;;;;;;;4.22;3.58;;;14.70;95.60;;;;;;5115282;27;20222;-62
2021/05/26 06:42:48;;;;;;;4.05;3.75;;;14.80;95.50;;;;;;5114540;27;20226;-63
2021/05/26 06:45:15;;;;;;;12.93;10.30;;;14.90;95.20;;;;;;5114952;27;20231;-61
2021/05/26 06:47:42;;;;;;;8.47;5.70;;;15.00;94.80;;;;;;5114759;27;20461;-61
2021/05/26 06:50:09;;;;;;;4.00;2.80;;;15.10;94.50;;;;;;5114823;27;20461;-61
2021/05/26 06:52:36;;;;;;;3.80;2.27;;;15.20;94.00;;;;;;5115013;27;20293;-61
2021/05/26 06:55:03;;;;;;;1.63;1.53;;;15.30;93.90;;;;;;5114430;27;20471;-61
2021/05/26 06:57:29;;;;;;;2.60;1.67;;;15.50;94.00;;;;;;5114196;27;20992;-61
2021/05/26 06:59:55;;;;;;;3.40;2.03;;;15.60;94.00;;;;;;5114295;27;20801;-62
2021/05/26 07:02:22;;;;;;;4.20;1.83;;;15.70;93.80;;;;;;5114475;27;20466;-62
2021/05/26 07:04:49;;;;;;;2.20;1.83;;;15.70;93.40;;;;;;5114147;27;20468;-62
2021/05/26 07:07:15;;;;;;;4.50;1.87;;;15.70;93.20;;;;;;5114580;27;20479;-61
2021/05/26 07:09:42;;;;;;;4.27;2.10;;;15.80;93.20;;;;;;5114488;27;20479;-61
2021/05/26 07:12:08;;;;;;;6.30;2.20;;;15.80;93.20;;;;;;5114179;27;20461;-62
2021/05/26 07:14:35;;;;;;;2.53;1.90;;;15.80;93.20;;;;;;5114354;27;20468;-61
2021/05/26 07:17:01;;;;;;;2.07;1.87;;;15.90;93.30;;;;;;5113704;27;20484;-61
2021/05/26 07:19:28;;;;;;;4.20;3.80;;;15.90;93.00;;;;;;5114359;27;20464;-62
2021/05/26 07:21:55;;;;;;;6.10;3.37;;;15.80;92.20;;;;;;5113950;27;20525;-62
2021/05/26 07:24:21;;;;;;;2.30;2.10;;;15.90;92.20;;;;;;5114462;27;20468;-62
2021/05/26 07:26:47;;;;;;;3.27;2.50;;;15.90;92.00;;;;;;5113809;27;20460;-61
2021/05/26 07:29:14;;;;;;;2.40;2.20;;;16.00;91.90;;;;;;5114169;27;20794;-61
2021/05/26 07:31:41;;;;;;;1.90;1.80;;;16.10;91.90;;;;;;5114021;27;20479;-62
2021/05/26 07:34:07;;;;;;;1.63;1.53;;;16.20;91.70;;;;;;5113649;27;20474;-61
2021/05/26 07:36:34;;;;;;;2.27;1.90;;;16.20;91.50;;;;;;5114116;27;20958;-61
2021/05/26 07:39:02;;;;;;;1.70;1.60;;;16.30;91.60;;;;;;5113505;27;20468;-62
2021/05/26 07:41:28;;;;;;;2.90;1.83;;;16.30;91.40;;;;;;5113887;27;20464;-61
2021/05/26 07:43:55;;;;;;;4.27;2.00;;;16.30;91.00;;;;;;5113384;27;20981;-61
2021/05/26 07:46:21;;;;;;;2.10;1.87;;;16.20;90.90;;;;;;5113822;27;20516;-61
2021/05/26 07:48:51;;;;;;;2.33;1.97;;;16.30;91.20;;;;;;5113495;27;20464;-62
2021/05/26 07:51:19;;;;;;;3.83;1.90;;;16.40;91.30;;;;;;5113707;27;20460;-61
2021/05/26 07:53:46;;;;;;;2.60;1.90;;;16.60;90.90;;;;;;5113815;27;20543;-62
2021/05/26 07:56:13;;;;;;;3.30;2.57;;;16.70;90.60;;;;;;5113149;27;20556;-62
2021/05/26 07:58:39;;;;;;;3.87;2.20;;;16.90;90.60;;;;;;5113872;27;20473;-63
2021/05/26 08:01:07;;;;;;;3.70;1.90;;;17.00;90.20;;;;;;5113341;27;20461;-63
2021/05/26 08:03:33;;;;;;;3.43;1.90;;;17.20;87.70;;;;;;5113276;27;20464;-62
2021/05/26 08:05:59;;;;;;;2.30;1.70;;;17.30;88.00;;;;;;5113135;27;20996;-62
2021/05/26 08:08:25;;;;;;;2.70;1.63;;;17.30;87.10;;;;;;5112707;27;20465;-62
2021/05/26 08:10:52;;;;;;;5.30;2.13;;;17.40;86.80;;;;;;5113153;27;20503;-62
2021/05/26 08:13:19;;;;;;;5.03;4.30;;;17.30;86.50;;;;;;5113565;27;20453;-62
2021/05/26 08:15:45;;;;;;;4.53;2.50;;;17.30;86.60;;;;;;5113503;27;20984;-62
2021/05/26 08:18:12;;;;;;;3.43;2.70;;;17.20;86.60;;;;;;5112865;27;20528;-62
2021/05/26 08:20:39;;;;;;;2.27;2.07;;;17.20;86.70;;;;;;5113131;27;21124;-62
2021/05/26 08:23:06;;;;;;;3.33;2.37;;;17.20;86.90;;;;;;5112763;27;20464;-62
2021/05/26 08:25:32;;;;;;;2.93;1.50;;;17.20;87.00;;;;;;5113286;27;20794;-62
2021/05/26 08:27:58;;;;;;;1.73;1.40;;;17.10;86.50;;;;;;5113035;27;20479;-62
2021/05/26 08:30:25;;;;;;;1.83;1.70;;;17.00;85.90;;;;;;5113161;27;20453;-62
2021/05/26 08:32:52;;;;;;;3.53;1.80;;;17.00;86.20;;;;;;5112873;27;20465;-61
2021/05/26 08:35:18;;;;;;;1.90;1.67;;;16.80;85.60;;;;;;5113095;27;20460;-61
2021/05/26 08:37:44;;;;;;;1.90;1.60;;;16.80;86.80;;;;;;5113056;27;20468;-61
2021/05/26 08:40:12;;;;;;;1.90;1.70;;;16.70;86.50;;;;;;5112794;27;20472;-61
2021/05/26 08:42:42;;;;;;;2.97;1.93;;;16.80;86.80;;;;;;5113269;27;20475;-62
2021/05/26 08:45:09;;;;;;;2.90;1.73;;;16.80;87.00;;;;;;5112690;27;20957;-62
2021/05/26 08:47:37;;;;;;;3.07;1.90;;;16.80;87.30;;;;;;5112931;27;20484;-62
2021/05/26 08:50:04;;;;;;;4.50;1.87;;;16.90;87.60;;;;;;5112603;27;20476;-62
2021/05/26 08:52:31;;;;;;;2.33;1.63;;;17.00;87.10;;;;;;5113209;27;20470;-62
2021/05/26 08:54:57;;;;;;;3.33;2.00;;;17.10;86.70;;;;;;5112705;27;20468;-62
2021/05/26 08:57:23;;;;;;;2.70;1.47;;;17.10;86.00;;;;;;5112972;27;20468;-62
2021/05/26 08:59:49;;;;;;;3.43;2.70;;;17.20;85.90;;;;;;5112827;27;20465;-62
2021/05/26 09:02:16;;;;;;;5.30;2.53;;;17.30;84.20;;;;;;5112608;27;20453;-62
2021/05/26 09:04:43;;;;;;;4.70;2.20;;;17.30;84.10;;;;;;5112741;27;20497;-62
2021/05/26 09:07:14;;;;;;;3.53;2.37;;;17.40;83.80;;;;;;5112436;27;20460;-62
2021/05/26 09:09:48;;;;;;;4.50;2.90;;;17.50;83.20;;;;;;5113216;27;20545;-62
2021/05/26 09:12:23;;;;;;;6.80;4.80;;;17.60;82.10;;;;;;5112383;27;20543;-62
2021/05/26 09:14:49;;;;;;;3.43;3.13;;;17.60;81.60;;;;;;5112909;27;20822;-62
2021/05/26 09:17:16;;;;;;;3.40;2.30;;;17.60;81.50;;;;;;5112337;27;20829;-62
2021/05/26 09:19:45;;;;;;;1.80;1.40;;;17.60;81.80;;;;;;5113036;27;20483;-61
2021/05/26 09:22:11;;;;;;;5.70;1.93;;;17.60;81.70;;;;;;5116206;27;20460;-61
2021/05/26 09:24:38;;;;;;;2.87;1.87;;;17.70;81.50;;;;;;5116701;27;20605;-62
2021/05/26 09:27:06;;;;;;;2.50;1.40;;;17.70;81.00;;;;;;5116142;27;20547;-62
2021/05/26 09:29:33;;;;;;;2.60;1.70;;;17.70;81.00;;;;;;5116565;27;20452;-62
2021/05/26 09:32:18;;;;;;;3.43;1.60;;;17.70;80.00;;;;;;5116045;27;20497;-62
2021/05/26 09:34:47;;;;;;;4.40;1.70;;;17.50;79.30;;;;;;5116483;27;20460;-62
2021/05/26 09:37:15;;;;;;;2.70;1.30;;;17.30;79.30;;;;;;5116049;27;20476;-62
2021/05/26 09:39:57;;;;;;;8.77;5.70;;;17.30;80.30;;;;;;5116324;27;20460;-62
2021/05/26 09:42:34;;;;;;;4.67;3.87;;;17.20;80.60;;;;;;5115975;27;21257;-62
2021/05/26 09:45:12;;;;;;;5.53;3.50;;;17.10;81.70;;;;;;5115753;27;20502;-62
2021/05/26 09:47:40;;;;;;;9.03;3.83;;;17.10;82.30;;;;;;5116296;27;20452;-62
2021/05/26 09:50:26;;;;;;;2.87;1.93;;;17.10;82.30;;;;;;5115923;27;20468;-62
2021/05/26 09:53:07;;;;;;;5.97;5.37;;;17.00;81.90;;;;;;5116049;27;20516;-62
2021/05/26 09:55:36;;;;;;;5.73;3.63;;;17.00;81.30;;;;;;5115738;27;20493;-62
2021/05/26 09:58:04;;;;;;;3.83;2.20;;;17.00;81.90;;;;;;5116178;27;20546;-62
2021/05/26 10:00:31;;;;;;;4.90;3.63;;;17.00;82.30;;;;;;5115514;27;20825;-62
2021/05/26 10:02:58;;;;;;;5.60;3.07;;;17.10;82.50;;;;;;5115748;27;20580;-62
2021/05/26 10:05:26;;;;;;;3.53;2.37;;;17.10;82.40;;;;;;5115253;27;20464;-61
2021/05/26 10:07:54;;;;;;;2.80;2.03;;;17.10;83.70;;;;;;5115844;27;20456;-62
2021/05/26 10:10:22;;;;;;;4.63;3.30;;;17.10;85.40;;;;;;5115165;27;20456;-62
2021/05/26 10:12:53;;;;;;;6.50;4.63;;;17.10;87.30;;;;;;5115890;27;20463;-62
2021/05/26 10:15:21;;;;;;;4.10;2.00;;;17.10;88.50;;;;;;5115263;27;20958;-62
2021/05/26 10:17:50;;;;;;;3.20;1.67;;;17.20;88.10;;;;;;5115345;27;20964;-62
2021/05/26 10:20:22;;;;;;;2.83;1.57;;;17.20;86.50;;;;;;5115157;27;20521;-61
2021/05/26 10:22:51;;;;;;;1.70;1.60;;;17.30;85.50;;;;;;5115536;27;20471;-62
2021/05/26 10:25:19;;;;;;;3.37;1.37;;;17.50;84.30;;;;;;5114951;27;20468;-62
2021/05/26 10:27:47;;;;;;;2.50;1.47;;;17.60;82.30;;;;;;5115223;27;20461;-62
2021/05/26 10:30:15;;;;;;;5.17;1.33;;;17.60;81.90;;;;;;5115063;27;20461;-62
2021/05/26 10:32:50;;;;;;;3.50;1.50;;;17.80;82.20;;;;;;5114183;27;20479;-63
2021/05/26 10:35:17;;;;;;;1.37;1.20;;;17.90;81.80;;;;;;5114856;27;20531;-62
2021/05/26 10:37:45;;;;;;;2.00;1.27;;;17.90;80.10;;;;;;5115118;27;20468;-62
2021/05/26 10:40:44;;;;;;;4.80;1.43;;;18.00;79.20;;;;;;5115257;27;20469;-62
2021/05/26 10:43:33;;;;;;;3.77;1.00;;;18.10;78.50;;;;;;5115362;27;20483;-62
2021/05/26 10:46:02;;;;;;;3.43;2.03;;;18.20;78.50;;;;;;5114815;27;20465;-62
2021/05/26 10:49:03;;;;;;;1.60;1.17;;;18.30;77.90;;;;;;5114913;27;20471;-62
2021/05/26 10:51:57;;;;;;;2.00;1.30;;;18.30;77.60;;;;;;5115459;27;20531;-62
2021/05/26 10:54:57;;;;;;;3.20;1.50;;;18.30;76.60;;;;;;5096804;27;20461;-62
2021/05/26 10:57:24;;;;;;;4.17;1.53;;;18.20;77.10;;;;;;5114135;27;20476;-62
2021/05/26 11:00:24;;;;;;;2.40;2.20;;;18.20;77.40;;;;;;5114725;27;20448;-62
2021/05/26 11:03:39;;;;;;;3.07;1.70;;;18.20;78.50;;;;;;5115054;27;20606;-62
2021/05/26 11:06:21;;;;;;;6.80;2.40;;;18.30;80.10;;;;;;5114455;27;20475;-62
2021/05/26 11:08:48;;;;;;;3.53;2.37;;;18.40;80.80;;;;;;5101040;27;20468;-62
2021/05/26 11:11:54;;;;;;;3.50;2.00;;;18.40;81.50;;;;;;5114646;27;20464;-62
2021/05/26 11:14:33;;;;;;;2.07;1.50;;;18.40;81.90;;;;;;5114410;27;20464;-62
2021/05/26 11:17:24;;;;;;;1.67;1.57;;;18.40;82.10;;;;;;5114482;27;20814;-62
2021/05/26 11:19:51;;;;;;;2.47;1.67;;;18.50;82.70;;;;;;5114064;27;20451;-62
2021/05/26 11:22:23;;;;;;;5.83;1.57;;;18.50;82.60;;;;;;5114307;27;20456;-62
2021/05/26 11:24:52;;;;;;;4.70;1.50;;;18.60;82.70;;;;;;5114073;27;20509;-62
2021/05/26 11:27:21;;;;;;;2.83;1.37;;;18.60;82.90;;;;;;5114066;27;20475;-62
2021/05/26 11:29:50;;;;;;;1.70;1.60;;;18.60;80.80;;;;;;5113688;27;20457;-62
2021/05/26 11:32:19;;;;;;;2.13;1.70;;;18.70;80.60;;;;;;5114026;27;20478;-62
2021/05/26 11:34:47;;;;;;;3.00;1.50;;;18.70;79.60;;;;;;5113598;27;20471;-62
2021/05/26 11:37:26;;;;;;;1.90;1.30;;;18.70;79.40;;;;;;5114100;27;20805;-61
2021/05/26 11:39:52;;;;;;;2.07;1.33;;;18.80;79.70;;;;;;5113918;27;20826;-62
2021/05/26 11:42:21;;;;;;;2.90;1.13;;;18.90;79.70;;;;;;5105676;27;20472;-62
2021/05/26 11:44:56;;;;;;;1.93;1.33;;;18.90;78.20;;;;;;5101241;27;20447;-62
2021/05/26 11:47:35;;;;;;;2.90;1.40;;;18.90;78.20;;;;;;5104532;27;20496;-62
2021/05/26 11:50:03;;;;;;;1.60;1.50;;;19.00;78.10;;;;;;5112497;27;20475;-62
2021/05/26 11:52:29;;;;;;;3.20;1.60;;;19.10;77.30;;;;;;5112533;27;20464;-62
2021/05/26 11:54:59;;;;;;;3.23;1.30;;;19.10;71.80;;;;;;5112923;27;20548;-62
2021/05/26 11:57:32;;;;;;;1.73;1.10;;;19.10;71.60;;;;;;5112476;27;20472;-62
2021/05/26 12:00:00;;;;;;;2.70;1.10;;;19.20;72.00;;;;;;5103016;27;20805;-62
2021/05/26 12:02:26;;;;;;;1.53;1.27;;;19.20;72.40;;;;;;5113229;27;20472;-62
2021/05/26 12:04:54;;;;;;;3.70;2.93;;;19.30;73.00;;;;;;5112131;27;20469;-63
2021/05/26 12:07:25;;;;;;;2.43;2.13;;;19.20;73.20;;;;;;5112984;27;20970;-62
2021/05/26 12:09:56;;;;;;;4.20;1.93;;;19.10;72.20;;;;;;5112997;27;20461;-62
2021/05/26 12:12:23;;;;;;;2.20;1.07;;;18.90;71.80;;;;;;5110485;27;20462;-62
2021/05/26 12:14:50;;;;;;;1.77;1.23;;;18.80;71.80;;;;;;5109842;27;20468;-63
2021/05/26 12:17:18;;;;;;;1.40;1.30;;;18.60;71.90;;;;;;5112869;27;20492;-61
2021/05/26 12:19:45;;;;;;;3.50;1.37;;;18.70;73.00;;;;;;5112954;27;20496;-61
2021/05/26 12:22:14;;;;;;;3.73;2.90;;;18.60;72.80;;;;;;5113218;27;21087;-62
2021/05/26 12:24:55;;;;;;;3.30;3.00;;;18.60;73.10;;;;;;5112573;27;20457;-60
2021/05/26 12:27:32;;;;;;;1.73;1.57;;;18.60;72.60;;;;;;5113022;27;20460;-61
2021/05/26 12:30:19;;;;;;;7.90;4.70;;;18.60;72.50;;;;;;5112639;27;20540;-62
2021/05/26 12:32:47;;;;;;;12.67;11.03;;;18.60;72.40;;;;;;5112248;27;20460;-61
2021/05/26 12:35:18;;;;;;;7.30;5.13;;;18.60;72.10;;;;;;5113025;28;20517;-62
2021/05/26 12:37:47;;;;;;;6.97;6.27;;;18.70;72.80;;;;;;5072062;28;20482;-62
2021/05/26 12:40:18;;;;;;;4.07;3.17;;;18.60;72.10;;;;;;5075143;28;20455;-62
2021/05/26 12:42:46;;;;;;;4.90;2.63;;;18.50;72.20;;;;;;5112389;27;20467;-63
2021/05/26 12:45:17;;;;;;;3.93;1.40;;;18.40;73.00;;;;;;5112889;27;20464;-62
2021/05/26 12:47:43;;;;;;;3.40;1.70;;;18.40;74.10;;;;;;5112404;27;20552;-63
2021/05/26 12:50:11;;;;;;;3.17;2.60;;;18.50;73.50;;;;;;5113073;27;21003;-63
2021/05/26 12:52:38;;;;;;;3.07;2.70;;;18.50;72.80;;;;;;5112718;27;20819;-63
2021/05/26 12:55:09;;;;;;;3.30;3.00;;;18.40;73.40;;;;;;5113137;27;20452;-62